Skip to main content

NOAA/GLERL Met Station at Chicago, IL

Previous 3 Hours (2 minute increments)
See also Previous 5 Days (top of hour)
Jump down to Data
Switch to [English][Metric]
Zoom: Click and drag, Pan: shift-click and drag, Unzoom: double-click, Unzoom All




See also 1-day windrose plot


NOAA/GLERL Met Station at Chicago, IL

Previous 3 Hours (2 minute increments)
See also Previous 5 Days (top of hour only)
Jump up to Graphs
Switch to [English][Metric]
                  Wind  Wind  Wind   Air   Dew   Rel
                   Spd   Gst   Dir  Temp    Pt   Hum
YYYY-MM-DD   CDT   m/s   m/s   deg     C     C     %
2020-04-06 10:06   5.8   6.0   137   6.7   5.4  91.1
2020-04-06 10:04   5.8   6.0   138   6.8   5.4  90.7
2020-04-06 10:02   5.7   6.0   141   6.7   5.4  91.5
2020-04-06 10:00   5.8   6.0   140   6.6   5.5  92.5
2020-04-06 09:58   6.0   6.2   138   6.5   5.5  93.6
2020-04-06 09:56   6.0   6.2   137   6.4   5.5  94.0
2020-04-06 09:54   5.8   6.2   135   6.4   5.6  94.3
2020-04-06 09:52   5.7   5.8   137   6.6   5.6  93.5
2020-04-06 09:50   5.1   5.5   137   6.6   5.7  93.8
2020-04-06 09:48   4.4   4.8   140   6.6   5.7  94.0
2020-04-06 09:46   4.3   4.7   142   6.6   5.6  93.3
2020-04-06 09:44   4.0   4.3   144   6.6   5.6  93.0
2020-04-06 09:42   3.9   4.2   148   6.5   5.5  93.2
2020-04-06 09:40   3.5   3.8   147   6.4   5.5  94.1
2020-04-06 09:38   3.5   3.7   144   6.3   5.6  95.1
2020-04-06 09:36   3.3   3.6   144   6.2   5.5  95.3
2020-04-06 09:34   2.7   3.0   142   6.2   5.6  95.8
2020-04-06 09:32   2.7   3.1   149   6.1   5.5  95.9
2020-04-06 09:30   2.9   3.4   157   6.0   5.5  96.3
2020-04-06 09:28   2.6   3.0   156   5.9   5.5  97.1
2020-04-06 09:26   2.7   3.3   157   5.8   5.5  97.7
2020-04-06 09:24   3.0   3.3   155   5.7   5.4  98.2
2020-04-06 09:22   3.1   3.4   155   5.7   5.4  98.2
2020-04-06 09:20   3.1   3.7   157   5.7   5.4  98.0
2020-04-06 09:18   3.3   3.8   159   5.7   5.4  98.2
2020-04-06 09:16   3.4   3.6   163   5.6   5.5  99.0
2020-04-06 09:14   3.5   3.6   167   5.5   5.4  99.6
2020-04-06 09:12   3.3   3.4   175   5.4   5.4 100.0
2020-04-06 09:10   3.1   3.4   177   5.4   5.4 100.1
2020-04-06 09:08   2.8   3.0   177   5.3   5.3 100.3
2020-04-06 09:06   2.6   2.7   181   5.3   5.3 100.2
2020-04-06 09:04   2.9   3.1   181   5.3   5.3  99.8
2020-04-06 09:02   3.0   3.3   175   5.3   5.3  99.8
2020-04-06 09:00   3.2   3.3   174   5.2   5.2 100.0
2020-04-06 08:58   3.2   3.3   175   5.2   5.2 100.1
2020-04-06 08:56   3.1   3.3   176   5.2   5.2 100.2
2020-04-06 08:54   3.2   3.5   173   5.1   5.1 100.2
2020-04-06 08:52   3.4   3.6   174   5.1   5.1  99.9
2020-04-06 08:50   3.5   3.9   172   5.1   5.0  99.6
2020-04-06 08:48   4.1   4.3   170   5.0   5.0 100.0
2020-04-06 08:46   3.8   4.1   169   5.0   5.0 100.3
2020-04-06 08:44   3.4   3.8   165   5.0   5.0 100.3
2020-04-06 08:42   3.1   3.6   160   5.0   5.0 100.2
2020-04-06 08:40   2.9   3.5   158   4.9   4.9 100.1
2020-04-06 08:38   2.7   3.2   159   4.9   4.9 100.0
2020-04-06 08:36   3.2   3.8   161   4.9   4.9  99.8
2020-04-06 08:34   2.9   3.4   161   4.9   4.9  99.7
2020-04-06 08:32   2.9   3.4   163   4.9   4.9  99.7
2020-04-06 08:30   3.2   3.8   161   4.9   4.9  99.8
2020-04-06 08:28   3.1   3.8   163   4.8   4.7  99.6
2020-04-06 08:26   3.1   3.5   169   4.9   4.8  99.4
2020-04-06 08:24   3.3   3.7   170   4.8   4.7  99.2
2020-04-06 08:22   2.9   3.3   165   4.8   4.6  98.7
2020-04-06 08:20   3.5   3.6   170   4.8   4.6  98.6
2020-04-06 08:18   3.7   4.0   171   4.7   4.6  99.0
2020-04-06 08:16   3.6   4.1   165   4.7   4.6  99.1
2020-04-06 08:14   3.4   4.0   160   4.7   4.5  98.7
2020-04-06 08:12   2.5   3.5   153   4.8   4.6  98.5
2020-04-06 08:10   1.7   3.4   156   4.8   4.5  97.6
2020-04-06 08:08   2.8   3.9   157   4.9   4.5  97.2
2020-04-06 08:06   3.2   3.9   151   4.9   4.5  97.4
2020-04-06 08:04   2.8   3.6   151   4.8   4.6  98.6
2020-04-06 08:02   2.9   3.7   157   4.6   4.5  99.2
2020-04-06 08:00   2.3   3.2   163   4.5   4.4  99.6
2020-04-06 07:58   3.3   3.6   170   4.4   4.3  99.4
2020-04-06 07:56   3.3   3.8   169   4.4   4.3  99.5
2020-04-06 07:54   3.0   3.7   161   4.3   4.2  99.4
2020-04-06 07:52   2.9   3.7   151   4.3   4.2  99.5
2020-04-06 07:50   3.7   4.1   136   4.2   4.2  99.8
2020-04-06 07:48   3.5   3.9   131   4.2   4.2  99.8
2020-04-06 07:46   3.8   4.2   128   4.2   4.1  99.4
2020-04-06 07:44   4.0   4.4   127   4.3   4.2  99.2
2020-04-06 07:42   4.1   4.4   129   4.2   4.1  99.4
2020-04-06 07:40   4.0   4.2   128   4.2   4.1  99.5
2020-04-06 07:38   3.8   4.3   130   4.2   4.2  99.7
2020-04-06 07:36   3.7   3.9   131   4.1   4.0  99.4
2020-04-06 07:34   3.8   4.0   129   4.1   4.0  99.0
2020-04-06 07:32   3.7   3.9   128   4.1   3.9  98.8
2020-04-06 07:30   3.6   3.8   129   4.2   4.0  98.4
2020-04-06 07:28   3.5   3.7   136   4.3   4.0  98.2
2020-04-06 07:26   3.1   3.4   145   4.3   4.0  98.0
2020-04-06 07:24   3.3   3.6   144   4.4   4.0  97.3
2020-04-06 07:22   2.8   3.5   144   4.5   4.0  96.6
2020-04-06 07:20   2.9   3.2   147   4.5   3.9  96.2
2020-04-06 07:18   1.5   2.9   146   4.6   4.1  96.3
2020-04-06 07:16   2.7   3.2   139   4.6   4.0  96.0
2020-04-06 07:14   3.0   3.4   140   4.7   4.1  95.6
2020-04-06 07:12   2.0   3.0   151   4.6   4.0  95.9
2020-04-06 07:10   2.5   2.8   151   4.5   3.9  96.0
2020-04-06 07:08   1.8   2.6   151   4.5   4.0  96.6
2020-04-06 07:06   2.4   2.8   148   4.3   3.8  96.6